Airports

 

 

Airport Name Latest METAR Visual Conditions
Guam International Airport (GUM) PGUM 230454Z 11010G19KT 10SM SCT027 31/24 A2978 RMK AO2 SLP074 T03110239 VFR
Daniel K Inouye International Airport (HNL) PHNL 230453Z 05007KT 10SM FEW026 SCT060 OVC180 28/20 A2999 RMK AO2 SLP155 T02780200 VFR
Hilo International Airport (ITO) PHTO 230453Z 22003KT 10SM FEW026 BKN037 24/22 A3001 RMK AO2 SLP162 T02390217 VFR
Ellison Onizuka Kona International Airport at Keahole (Kona) (KOA) PHKO 230453Z 16010KT 10SM SCT050 BKN085 OVC110 28/22 A2995 RMK AO2 SLP142 T02780222 VFR
Lihue Airport (LIH) PHLI 230453Z 30004KT 10SM FEW035 26/23 A3000 RMK AO2 SLP155 T02560228 VFR
Kahului Airport (Maui) (OGG) PHOG 230454Z COR 05009KT 10SM FEW025 SCT035 SCT050 28/19 A2998 RMK AO2 SLP154 T02780194 VFR